Terminal Aerodrome Forecast
Issued by NWS Lubbock, TX

Home | Current Version | Previous Version | Text Only | Print | Product List | Glossary On
Versions: 1 2 3 4 5 6 7 8 9 10 11 12 13 14 15 16 17 18 19
331
FTUS44 KLUB 290317 AAA
TAFLBB
TAF AMD
KLBB 290317Z 2903/2924 12011KT P6SM -SHRA SCT080 BKN120
     FM290600 07010KT P6SM BKN050 OVC120=

USA.gov is the U.S. government's official web portal to all federal, state and local government web resources and services.